Glen Ogle, United Kingdom
Current Conditions -  °F | °C
As of 6:20 AM on Monday 26 Jan 2015 (Local Time) from EGPF Reporting Station
NA  
Wind Chill: 34°   Ceiling: NA
Heat Index: 41°   Visibility: 6mi
Dew Point: 36°   Wind: 13mph
Humidity: 81%   Direction: 250°WSW
Pressure: 30"   Gusts: NA
Location:  56.42°N, 4.32°W
Report Text: EGPF 260620Z AUTO 25011KT 9999 //////TCU 05/02 Q1016
Loading
Personal Weather Stations






























Interactive Weather Map New forecast layout! Learn more

10-Day Weather Forecast

Advertisements
Track Severe Weather on mobile